createdAt,value
2022-12-01T00:01:37.145Z,103155.48
2022-12-01T00:04:05.767Z,103152.50
2022-12-01T00:06:34.098Z,103152.45
2022-12-01T00:09:20.794Z,103151.42
2022-12-01T00:11:49.274Z,103138.81
2022-12-01T00:14:18.047Z,103154.46
2022-12-01T00:16:46.406Z,103155.02
2022-12-01T00:19:14.883Z,103156.27
2022-12-01T00:21:43.193Z,103155.05
2022-12-01T00:24:12.614Z,103152.72
2022-12-01T00:26:40.994Z,103152.42
2022-12-01T00:29:09.426Z,103150.06
2022-12-01T00:31:37.995Z,103152.13
2022-12-01T00:34:11.109Z,103152.70
2022-12-01T00:36:39.860Z,103154.05
2022-12-01T00:39:08.808Z,103155.61
2022-12-01T00:41:37.090Z,103150.05
2022-12-01T00:44:05.675Z,103144.52
2022-12-01T00:46:34.226Z,103139.47
2022-12-01T00:49:02.539Z,103137.31
2022-12-01T00:51:30.877Z,103138.31
2022-12-01T00:53:59.327Z,103137.02
2022-12-01T00:56:27.652Z,103136.63
2022-12-01T00:58:56.252Z,103136.92
2022-12-01T01:01:24.696Z,103139.28
2022-12-01T01:03:53.118Z,103136.62
2022-12-01T01:06:21.483Z,103138.35
2022-12-01T01:08:49.912Z,103139.73
2022-12-01T01:11:18.330Z,103142.56
2022-12-01T01:13:46.997Z,103140.43
2022-12-01T01:16:19.085Z,103142.18
2022-12-01T01:18:47.931Z,103139.36
2022-12-01T01:21:18.820Z,103136.91
2022-12-01T01:23:48.424Z,103138.05
2022-12-01T01:26:18.201Z,103137.40
2022-12-01T01:28:47.771Z,103136.05
2022-12-01T01:31:21.814Z,103135.14
2022-12-01T01:33:52.446Z,103137.55
2022-12-01T01:36:20.987Z,103136.13
2022-12-01T01:38:51.825Z,103138.65
2022-12-01T01:41:21.145Z,103140.33
2022-12-01T01:43:52.791Z,103142.10
2022-12-01T01:46:28.249Z,103144.04
2022-12-01T01:49:05.086Z,103146.06
2022-12-01T01:51:49.705Z,103148.19
2022-12-01T01:54:28.600Z,103150.24
2022-12-01T01:57:00.323Z,103151.91
2022-12-01T01:59:34.257Z,103153.39
2022-12-01T02:02:09.035Z,103154.70
2022-12-01T02:04:51.482Z,103153.17
2022-12-01T02:07:20.900Z,103154.89
2022-12-01T02:09:49.507Z,103158.13
2022-12-01T02:12:40.334Z,103155.59
2022-12-01T02:15:30.400Z,103155.94
2022-12-01T02:18:38.478Z,103152.88
2022-12-01T02:21:23.441Z,103157.34
2022-12-01T02:24:26.176Z,103155.20
2022-12-01T02:27:17.159Z,103155.53
2022-12-01T02:30:03.926Z,103152.02
2022-12-01T02:32:44.241Z,103152.28
2022-12-01T02:35:21.761Z,103149.46
2022-12-01T02:38:14.477Z,103133.19
2022-12-01T02:41:07.481Z,103148.15
2022-12-01T02:43:46.493Z,103148.64
2022-12-01T02:46:39.614Z,103146.67
2022-12-01T02:49:19.158Z,103146.41
2022-12-01T02:51:48.854Z,103148.12
2022-12-01T02:54:18.065Z,103146.83
2022-12-01T02:56:46.608Z,103142.61
2022-12-01T02:59:15.311Z,103141.88
2022-12-01T03:02:10.177Z,103142.22
2022-12-01T03:05:10.117Z,103140.65
2022-12-01T03:08:01.003Z,103141.08
2022-12-01T03:10:38.886Z,103121.98
2022-12-01T03:13:12.891Z,103134.73
2022-12-01T03:16:06.779Z,103130.31
2022-12-01T03:18:40.126Z,103133.00
2022-12-01T03:21:23.791Z,103130.50
2022-12-01T03:24:03.263Z,103130.17
2022-12-01T03:26:35.557Z,103128.91
2022-12-01T03:29:08.763Z,103134.48
2022-12-01T03:31:44.654Z,103136.86
2022-12-01T03:34:18.116Z,103137.67
2022-12-01T03:36:49.756Z,103141.23
2022-12-01T03:39:23.470Z,103143.63
2022-12-01T03:42:11.759Z,103139.13
2022-12-01T03:44:53.696Z,103123.77
2022-12-01T03:47:25.376Z,103139.03
2022-12-01T03:49:54.775Z,103143.00
2022-12-01T03:52:35.046Z,103144.27
2022-12-01T03:55:22.760Z,103141.89
2022-12-01T03:58:04.419Z,103140.68
2022-12-01T04:00:33.490Z,103138.59
2022-12-01T04:03:04.313Z,103143.12
2022-12-01T04:05:34.720Z,103141.52
2022-12-01T04:08:02.974Z,103141.52
2022-12-01T04:10:33.136Z,103140.49
2022-12-01T04:13:01.451Z,103138.27
2022-12-01T04:15:29.850Z,103137.42
2022-12-01T04:17:58.139Z,103137.34
2022-12-01T04:20:26.439Z,103133.61
2022-12-01T04:22:54.563Z,103131.54
2022-12-01T04:25:22.698Z,103132.48
2022-12-01T04:27:50.817Z,103135.89
2022-12-01T04:30:19.047Z,103132.13
2022-12-01T04:32:48.042Z,103134.98
2022-12-01T04:35:16.526Z,103137.23
2022-12-01T04:37:44.894Z,103137.19
2022-12-01T04:40:13.106Z,103137.67
2022-12-01T04:42:41.257Z,103124.23
2022-12-01T04:45:10.099Z,103136.70
2022-12-01T04:47:38.222Z,103139.22
2022-12-01T04:50:06.796Z,103139.11
2022-12-01T04:52:37.439Z,103137.20
2022-12-01T04:55:06.063Z,103136.42
2022-12-01T04:57:34.249Z,103138.27
2022-12-01T05:00:02.500Z,103137.15
2022-12-01T05:02:30.725Z,103136.58
2022-12-01T05:04:58.953Z,103137.14
2022-12-01T05:07:27.135Z,103138.30
2022-12-01T05:09:55.312Z,103140.67
2022-12-01T05:12:24.039Z,103138.92
2022-12-01T05:14:52.444Z,103136.55
2022-12-01T05:17:20.617Z,103143.46
2022-12-01T05:20:07.170Z,103147.16
2022-12-01T05:23:03.762Z,103149.61
2022-12-01T05:25:23.402Z,103151.52
2022-12-01T05:27:51.559Z,103147.81
2022-12-01T05:30:23.056Z,103150.19
2022-12-01T05:32:53.935Z,103142.74
2022-12-01T05:35:22.210Z,103140.43
2022-12-01T05:37:50.660Z,103145.80
2022-12-01T05:40:18.902Z,103151.43
2022-12-01T05:42:47.400Z,103150.86
2022-12-01T05:45:15.604Z,103152.05
2022-12-01T05:47:44.312Z,103145.91
2022-12-01T05:50:12.420Z,103148.66
2022-12-01T05:52:40.880Z,103149.73
2022-12-01T05:55:11.011Z,103150.06
2022-12-01T05:57:39.176Z,103152.79
2022-12-01T06:00:08.325Z,103156.59
2022-12-01T06:02:42.302Z,103160.20
2022-12-01T06:05:10.821Z,103161.51
2022-12-01T06:07:40.538Z,103149.17
2022-12-01T06:10:10.616Z,103164.63
2022-12-01T06:12:39.297Z,103170.33
2022-12-01T06:15:08.579Z,103165.80
2022-12-01T06:17:40.167Z,103166.31
2022-12-01T06:20:11.071Z,103169.50
2022-12-01T06:22:39.480Z,103155.04
2022-12-01T06:25:08.314Z,103166.38
2022-12-01T06:27:36.849Z,103164.61
2022-12-01T06:30:06.074Z,103167.92
2022-12-01T06:32:34.308Z,103170.98
2022-12-01T06:35:03.116Z,103168.61
2022-12-01T06:37:31.322Z,103165.57
2022-12-01T06:39:59.562Z,103170.28
2022-12-01T06:42:30.673Z,103165.73
2022-12-01T06:44:58.925Z,103173.38
2022-12-01T06:47:27.302Z,103176.95
2022-12-01T06:50:00.679Z,103175.94
2022-12-01T06:52:28.970Z,103173.39
2022-12-01T06:54:57.213Z,103174.30
2022-12-01T06:57:26.291Z,103174.45
2022-12-01T06:59:55.082Z,103174.75
2022-12-01T07:02:24.036Z,103175.75
2022-12-01T07:04:54.618Z,103173.40
2022-12-01T07:07:23.089Z,103168.83
2022-12-01T07:09:51.681Z,103173.60
2022-12-01T07:12:20.167Z,103175.88
2022-12-01T07:14:48.485Z,103172.70
2022-12-01T07:17:16.825Z,103164.02
2022-12-01T07:19:45.766Z,103170.46
2022-12-01T07:22:16.022Z,103173.39
2022-12-01T07:24:44.599Z,103171.63
2022-12-01T07:27:12.700Z,103155.91
2022-12-01T07:29:40.866Z,103171.66
2022-12-01T07:32:09.120Z,103171.77
2022-12-01T07:34:42.110Z,103169.16
2022-12-01T07:37:10.899Z,103176.69
2022-12-01T07:39:39.246Z,103178.73
2022-12-01T07:42:07.774Z,103178.04
2022-12-01T07:44:36.160Z,103180.34
2022-12-01T07:47:04.604Z,103181.28
2022-12-01T07:49:34.447Z,103181.89
2022-12-01T07:52:02.844Z,103183.58
2022-12-01T07:54:31.196Z,103186.22
2022-12-01T07:56:59.860Z,103187.25
2022-12-01T07:59:28.437Z,103164.95
2022-12-01T08:01:57.133Z,103187.46
2022-12-01T08:04:26.763Z,103184.01
2022-12-01T08:06:55.239Z,103190.61
2022-12-01T08:09:24.019Z,103195.46
2022-12-01T08:11:52.291Z,103183.24
2022-12-01T08:14:20.892Z,103180.16
2022-12-01T08:16:49.548Z,103182.80
2022-12-01T08:19:17.728Z,103183.96
2022-12-01T08:21:46.202Z,103181.13
2022-12-01T08:24:14.360Z,103183.40
2022-12-01T08:26:42.609Z,103184.31
2022-12-01T08:29:13.545Z,103186.47
2022-12-01T08:31:44.074Z,103187.98
2022-12-01T08:34:12.343Z,103183.48
2022-12-01T08:36:40.706Z,103186.54
2022-12-01T08:39:09.630Z,103186.46
2022-12-01T08:41:38.038Z,103181.45
2022-12-01T08:44:06.767Z,103182.12
2022-12-01T08:46:36.147Z,103183.21
2022-12-01T08:49:06.319Z,103186.70
2022-12-01T08:51:36.033Z,103185.13
2022-12-01T08:54:05.243Z,103189.13
2022-12-01T08:56:40.135Z,103187.36
2022-12-01T08:59:09.558Z,103189.42
2022-12-01T09:01:52.263Z,103184.52
2022-12-01T09:04:23.217Z,103186.55
2022-12-01T09:06:55.358Z,103189.60
2022-12-01T09:09:27.398Z,103185.95
2022-12-01T09:11:56.994Z,103186.18
2022-12-01T09:14:25.433Z,103182.73
2022-12-01T09:16:53.828Z,103179.59
2022-12-01T09:19:25.004Z,103178.30
2022-12-01T09:21:53.692Z,103179.73
2022-12-01T09:24:22.197Z,103170.51
2022-12-01T09:26:54.634Z,103168.55
2022-12-01T09:29:23.412Z,103171.45
2022-12-01T09:31:51.924Z,103154.66
2022-12-01T09:34:20.835Z,103164.98
2022-12-01T09:36:49.547Z,103165.47
2022-12-01T09:39:20.055Z,103168.40
2022-12-01T09:41:54.475Z,103167.23
2022-12-01T09:44:31.913Z,103169.41
2022-12-01T09:47:24.966Z,103162.81
2022-12-01T09:50:10.976Z,103166.50
2022-12-01T09:53:06.940Z,103167.64
2022-12-01T09:55:36.369Z,103169.13
2022-12-01T09:58:05.946Z,103168.17
2022-12-01T10:00:41.081Z,103162.55
2022-12-01T10:03:09.976Z,103163.58
2022-12-01T10:06:10.431Z,103168.76
2022-12-01T10:08:39.662Z,103166.90
2022-12-01T10:11:26.965Z,103160.06
2022-12-01T10:13:55.420Z,103163.73
2022-12-01T10:16:30.968Z,103162.54
2022-12-01T10:19:07.504Z,103159.05
2022-12-01T10:22:14.378Z,103156.52
2022-12-01T10:24:56.247Z,103154.67
2022-12-01T10:27:52.933Z,103152.10
2022-12-01T10:30:24.010Z,103157.31
2022-12-01T10:32:55.530Z,103143.83
2022-12-01T10:35:27.484Z,103156.65
2022-12-01T10:38:02.860Z,103149.52
2022-12-01T10:40:35.387Z,103148.68
2022-12-01T10:43:03.686Z,103150.45
2022-12-01T10:45:36.020Z,103146.26
2022-12-01T10:48:21.935Z,103144.83
2022-12-01T10:51:14.151Z,103142.81
2022-12-01T10:53:42.735Z,103139.54
2022-12-01T10:56:22.156Z,103137.48
2022-12-01T10:58:52.060Z,103133.44
2022-12-01T11:01:24.994Z,103133.31
2022-12-01T11:04:20.020Z,103133.61
2022-12-01T11:06:51.805Z,103132.77
2022-12-01T11:09:28.162Z,103131.38
2022-12-01T11:12:02.006Z,103132.30
2022-12-01T11:14:33.226Z,103118.48
2022-12-01T11:17:16.748Z,103130.65
2022-12-01T11:19:45.558Z,103127.35
2022-12-01T11:22:30.534Z,103123.62
2022-12-01T11:25:04.617Z,103123.57
2022-12-01T11:27:36.962Z,103121.32
2022-12-01T11:30:20.478Z,103086.16
2022-12-01T11:33:03.616Z,103117.77
2022-12-01T11:35:38.209Z,103117.91
2022-12-01T11:38:29.410Z,103098.37
2022-12-01T11:40:57.939Z,103118.15
2022-12-01T11:43:36.930Z,103117.86
2022-12-01T11:46:09.380Z,103116.73
2022-12-01T11:48:38.325Z,103105.98
2022-12-01T11:51:09.627Z,103116.75
2022-12-01T11:53:38.125Z,103113.03
2022-12-01T11:56:17.847Z,103118.27
2022-12-01T11:58:49.164Z,103115.04
2022-12-01T12:01:29.649Z,103098.58
2022-12-01T12:04:19.027Z,103112.01
2022-12-01T12:06:56.456Z,103111.00
2022-12-01T12:09:27.958Z,103104.89
2022-12-01T12:12:11.789Z,103111.64
2022-12-01T12:14:40.043Z,103108.17
2022-12-01T12:17:19.650Z,103083.04
2022-12-01T12:20:07.855Z,103094.84
2022-12-01T12:22:55.875Z,103106.88
2022-12-01T12:25:37.895Z,103103.99
2022-12-01T12:28:41.190Z,103104.25
2022-12-01T12:31:24.707Z,103105.39
2022-12-01T12:34:12.798Z,103102.77
2022-12-01T12:36:50.299Z,103098.50
2022-12-01T12:39:41.818Z,103090.88
2022-12-01T12:42:22.723Z,103088.67
2022-12-01T12:45:06.439Z,103090.11
2022-12-01T12:47:40.528Z,103091.69
2022-12-01T12:50:28.536Z,103090.70
2022-12-01T12:53:03.707Z,103086.52
2022-12-01T12:55:39.658Z,103090.58
2022-12-01T12:58:11.571Z,103092.71
2022-12-01T13:00:46.829Z,103081.16
2022-12-01T13:03:29.193Z,103092.36
2022-12-01T13:06:11.858Z,103089.22
2022-12-01T13:08:48.204Z,103084.71
2022-12-01T13:11:25.719Z,103080.52
2022-12-01T13:14:24.868Z,103078.52
2022-12-01T13:16:57.489Z,103083.13
2022-12-01T13:19:30.307Z,103063.63
2022-12-01T13:22:01.440Z,103076.11
2022-12-01T13:24:31.458Z,103064.91
2022-12-01T13:27:13.373Z,103072.27
2022-12-01T13:29:47.180Z,103072.50
2022-12-01T13:32:40.695Z,103069.02
2022-12-01T13:35:27.833Z,103069.98
2022-12-01T13:38:14.552Z,103065.59
2022-12-01T13:40:43.162Z,103064.71
2022-12-01T13:43:19.905Z,103062.23
2022-12-01T13:45:49.952Z,103061.94
2022-12-01T13:48:52.280Z,103061.69
2022-12-01T13:51:20.713Z,103055.25
2022-12-01T13:53:58.319Z,103042.90
2022-12-01T13:56:46.552Z,103054.03
2022-12-01T13:59:40.032Z,103056.52
2022-12-01T14:02:19.490Z,103060.20
2022-12-01T14:04:48.726Z,103057.86
2022-12-01T14:07:32.383Z,103059.49
2022-12-01T14:10:29.257Z,103052.98
2022-12-01T14:13:04.973Z,103050.55
2022-12-01T14:15:42.442Z,103046.89
2022-12-01T14:18:35.564Z,103049.33
2022-12-01T14:21:07.075Z,103046.98
2022-12-01T14:23:58.684Z,103047.81
2022-12-01T14:26:29.891Z,103053.07
2022-12-01T14:29:03.117Z,103061.83
2022-12-01T14:31:34.295Z,103062.31
2022-12-01T14:34:08.530Z,103063.42
2022-12-01T14:36:48.700Z,103066.40
2022-12-01T14:39:20.032Z,103067.98
2022-12-01T14:41:57.626Z,103069.39
2022-12-01T14:44:38.277Z,103065.24
2022-12-01T14:47:27.879Z,103062.52
2022-12-01T14:50:01.764Z,103060.11
2022-12-01T14:52:36.069Z,103048.20
2022-12-01T14:55:13.109Z,103063.25
2022-12-01T14:57:46.365Z,103055.11
2022-12-01T15:00:19.412Z,103058.88
2022-12-01T15:03:01.437Z,103049.42
2022-12-01T15:05:32.794Z,103038.63
2022-12-01T15:11:24.083Z,103052.50
2022-12-01T15:13:55.415Z,103052.02
2022-12-01T15:16:27.057Z,103052.03
2022-12-01T15:18:55.699Z,103051.66
2022-12-01T15:21:27.173Z,103033.45
2022-12-01T15:24:02.975Z,103050.51
2022-12-01T15:26:34.790Z,103049.44
2022-12-01T15:29:16.675Z,103048.46
2022-12-01T15:31:49.352Z,103040.64
2022-12-01T15:34:21.621Z,103041.63
2022-12-01T15:36:52.440Z,102999.73
2022-12-01T15:39:31.522Z,103041.30
2022-12-01T15:42:00.225Z,103041.09
2022-12-01T15:44:32.178Z,103038.52
2022-12-01T15:47:20.695Z,103037.60
2022-12-01T15:49:49.729Z,103039.73
2022-12-01T15:52:18.882Z,103040.77
2022-12-01T15:54:49.069Z,103045.15
2022-12-01T15:57:20.511Z,103042.12
2022-12-01T15:59:57.523Z,103044.86
2022-12-01T16:02:32.151Z,103045.48
2022-12-01T16:05:27.315Z,103043.23
2022-12-01T16:10:44.931Z,103021.18
2022-12-01T16:13:59.943Z,103043.46
2022-12-01T16:16:34.695Z,103042.12
2022-12-01T16:19:22.708Z,103040.44
2022-12-01T16:22:01.756Z,103037.06
2022-12-01T16:24:36.097Z,103038.48
2022-12-01T16:27:22.938Z,103038.21
2022-12-01T16:30:21.212Z,103035.91
2022-12-01T16:32:49.877Z,103031.35
2022-12-01T16:35:34.051Z,103034.48
2022-12-01T16:38:13.428Z,103036.24
2022-12-01T16:40:44.217Z,103035.82
2022-12-01T16:43:15.934Z,103035.21
2022-12-01T16:45:46.590Z,103036.30
2022-12-01T16:48:14.959Z,103033.92
2022-12-01T16:50:43.327Z,103030.84
2022-12-01T16:53:12.887Z,103013.86
2022-12-01T16:55:56.335Z,103028.27
2022-12-01T16:58:25.558Z,103029.34
2022-12-01T17:00:54.605Z,103032.05
2022-12-01T17:03:27.869Z,103018.11
2022-12-01T17:05:59.038Z,103031.55
2022-12-01T17:08:27.457Z,103030.50
2022-12-01T17:10:56.221Z,103033.36
2022-12-01T17:13:24.788Z,103036.14
2022-12-01T17:15:54.769Z,103038.92
2022-12-01T17:18:24.276Z,103039.26
2022-12-01T17:21:00.895Z,103043.11
2022-12-01T17:23:29.911Z,103043.13
2022-12-01T17:25:58.684Z,103038.92
2022-12-01T17:28:27.441Z,103035.56
2022-12-01T17:31:00.515Z,103019.62
2022-12-01T17:33:29.515Z,103036.17
2022-12-01T17:36:11.205Z,103037.29
2022-12-01T17:38:42.183Z,103037.45
2022-12-01T17:41:22.380Z,103036.99
2022-12-01T17:43:50.859Z,103035.31
2022-12-01T17:46:19.260Z,103032.96
2022-12-01T17:48:47.620Z,103033.15
2022-12-01T17:51:16.041Z,103031.91
2022-12-01T17:53:44.510Z,103019.38
2022-12-01T17:56:14.787Z,103031.88
2022-12-01T17:58:43.597Z,103034.45
2022-12-01T18:01:16.270Z,103030.76
2022-12-01T18:03:45.287Z,103032.38
2022-12-01T18:06:14.713Z,103032.60
2022-12-01T18:08:43.664Z,103033.97
2022-12-01T18:11:16.197Z,103028.86
2022-12-01T18:13:47.161Z,103026.48
2022-12-01T18:16:25.156Z,103025.73
2022-12-01T18:18:54.950Z,103028.77
2022-12-01T18:21:24.188Z,103034.17
2022-12-01T18:24:03.054Z,103036.58
2022-12-01T18:26:33.766Z,103037.23
2022-12-01T18:29:05.168Z,103036.70
2022-12-01T18:31:34.245Z,103029.84
2022-12-01T18:34:03.860Z,103033.68
2022-12-01T18:36:35.255Z,103034.81
2022-12-01T18:39:07.396Z,103041.56
2022-12-01T18:41:36.477Z,103042.91
2022-12-01T18:44:05.401Z,103043.33
2022-12-01T18:46:34.532Z,103044.54
2022-12-01T18:49:04.880Z,103038.75
2022-12-01T18:51:36.063Z,103035.63
2022-12-01T18:54:06.854Z,103036.70
2022-12-01T18:56:35.878Z,103038.12
2022-12-01T18:59:07.236Z,103035.63
2022-12-01T19:01:39.986Z,103032.19
2022-12-01T19:04:09.843Z,103028.52
2022-12-01T19:06:40.505Z,103026.19
2022-12-01T19:09:11.023Z,103025.55
2022-12-01T19:11:40.886Z,103026.55
2022-12-01T19:14:15.715Z,103028.38
2022-12-01T19:16:44.952Z,103030.91
2022-12-01T19:19:13.641Z,103035.75
2022-12-01T19:21:42.967Z,103035.25
2022-12-01T19:24:11.793Z,103032.88
2022-12-01T19:26:40.440Z,103039.38
2022-12-01T19:29:09.093Z,103041.65
2022-12-01T19:31:37.959Z,103040.09
2022-12-01T19:34:06.647Z,103034.05
2022-12-01T19:36:34.972Z,103024.08
2022-12-01T19:39:07.747Z,103035.06
2022-12-01T19:41:39.174Z,103030.34
2022-12-01T19:44:07.616Z,103021.99
2022-12-01T19:46:36.145Z,103035.10
2022-12-01T19:49:05.766Z,103031.79
2022-12-01T19:51:37.263Z,103031.74
2022-12-01T19:54:08.724Z,103031.63
2022-12-01T19:56:36.976Z,103031.30
2022-12-01T19:59:08.188Z,103033.44
2022-12-01T20:01:38.376Z,103033.52
2022-12-01T20:04:07.204Z,103022.52
2022-12-01T20:06:37.170Z,103037.02
2022-12-01T20:09:07.443Z,103041.71
2022-12-01T20:11:37.025Z,103037.25
2022-12-01T20:14:07.561Z,103014.11
2022-12-01T20:16:36.378Z,103040.92
2022-12-01T20:19:06.184Z,103034.64
2022-12-01T20:21:42.308Z,103026.77
2022-12-01T20:24:13.729Z,103044.38
2022-12-01T20:26:49.402Z,103016.45
2022-12-01T20:29:21.365Z,103041.38
2022-12-01T20:31:51.417Z,103043.79
2022-12-01T20:34:26.693Z,103042.77
2022-12-01T20:36:55.945Z,103043.55
2022-12-01T20:39:25.152Z,103044.73
2022-12-01T20:41:54.032Z,103051.25
2022-12-01T20:44:22.636Z,103050.21
2022-12-01T20:46:51.140Z,103048.86
2022-12-01T20:49:22.081Z,103050.81
2022-12-01T20:51:50.840Z,103049.35
2022-12-01T20:54:30.318Z,103051.52
2022-12-01T20:57:03.456Z,103050.52
2022-12-01T20:59:32.398Z,103049.86
2022-12-01T21:02:00.928Z,103050.06
2022-12-01T21:04:32.763Z,103050.89
2022-12-01T21:07:01.311Z,103050.70
2022-12-01T21:09:31.683Z,103049.64
2022-12-01T21:12:22.168Z,103049.27
2022-12-01T21:15:06.043Z,103042.45
2022-12-01T21:17:46.942Z,103052.59
2022-12-01T21:20:21.827Z,103054.73
2022-12-01T21:22:54.173Z,103037.90
2022-12-01T21:25:24.947Z,103056.71
2022-12-01T21:28:02.584Z,103052.27
2022-12-01T21:30:31.438Z,103050.05
2022-12-01T21:33:27.908Z,103046.26
2022-12-01T21:35:56.555Z,103018.23
2022-12-01T21:38:25.383Z,103040.16
2022-12-01T21:40:54.552Z,103043.23
2022-12-01T21:43:25.971Z,103046.64
2022-12-01T21:46:07.661Z,103047.72
2022-12-01T21:48:37.223Z,103046.73
2022-12-01T21:51:23.485Z,103052.38
2022-12-01T21:53:58.761Z,103051.00
2022-12-01T21:56:31.797Z,103053.50
2022-12-01T21:59:12.932Z,103052.21
2022-12-01T22:01:42.435Z,103050.11
2022-12-01T22:04:20.896Z,103051.35
2022-12-01T22:06:53.256Z,103057.04
2022-12-01T22:09:35.263Z,103052.16
2022-12-01T22:12:28.069Z,103053.69
2022-12-01T22:15:14.379Z,103052.65
2022-12-01T22:17:42.723Z,103047.85
2022-12-01T22:20:22.381Z,103040.41
2022-12-01T22:22:50.700Z,103043.89
2022-12-01T22:25:26.436Z,103036.70
2022-12-01T22:27:56.452Z,103036.23
2022-12-01T22:30:24.838Z,103038.48
2022-12-01T22:33:06.506Z,103039.63
2022-12-01T22:35:44.999Z,103039.46
2022-12-01T22:38:36.901Z,103022.77
2022-12-01T22:41:14.560Z,103035.20
2022-12-01T22:43:56.593Z,103033.06
2022-12-01T22:46:33.270Z,103029.38
2022-12-01T22:49:10.508Z,103026.48
2022-12-01T22:51:49.959Z,103027.57
2022-12-01T22:54:26.614Z,103024.42
2022-12-01T22:57:08.551Z,103022.05
2022-12-01T22:59:40.697Z,103021.30
2022-12-01T23:02:29.710Z,103019.02
2022-12-01T23:05:14.607Z,103019.39
2022-12-01T23:07:43.866Z,103017.90
2022-12-01T23:10:20.169Z,103014.98
2022-12-01T23:12:50.848Z,103017.04
2022-12-01T23:15:37.962Z,103000.39
2022-12-01T23:18:16.617Z,102998.55
2022-12-01T23:20:47.702Z,103007.73
2022-12-01T23:23:25.809Z,103014.80
2022-12-01T23:25:54.864Z,103016.52
2022-12-01T23:28:24.128Z,103000.41
2022-12-01T23:30:57.106Z,103013.80
2022-12-01T23:33:31.490Z,103014.64
2022-12-01T23:36:13.649Z,103012.17
2022-12-01T23:38:47.260Z,103014.88
2022-12-01T23:41:25.605Z,103018.60
2022-12-01T23:43:55.881Z,103015.70
2022-12-01T23:46:27.550Z,103015.19
2022-12-01T23:49:07.321Z,103012.10
2022-12-01T23:51:38.896Z,103012.71
2022-12-01T23:54:17.612Z,102999.25
2022-12-01T23:56:52.916Z,103006.96
2022-12-01T23:59:22.203Z,103010.27
